Time;durP1;ratioP1;P1;durP2;ratioP2;P2;SDS_P1;SDS_P2;PMS_P1;PMS_P2;Temp;Humidity;BMP_temperature;BMP_pressure;BME280_temperature;BME280_humidity;BME280_pressure;Samples;Min_cycle;Max_cycle;Signal;HPM_P1;HPM_P2
2023/07/29 00:01:32;;;;;;;;;;;;;;;;;;4962698;28;19932;-80
2023/07/29 00:04:19;;;;;;;;;;;;;;;;;;4947535;28;19921;-80
2023/07/29 00:07:06;;;;;;;;;;;;;;;;;;4949708;28;19919;-80
2023/07/29 00:09:52;;;;;;;;;;;;;;;;;;4953205;28;19933;-80
2023/07/29 00:12:39;;;;;;;;;;;;;;;;;;4957082;28;19925;-80
2023/07/29 00:15:25;;;;;;;;;;;;;;;;;;4961071;28;19919;-79
2023/07/29 00:18:12;;;;;;;;;;;;;;;;;;4956632;28;19937;-78
2023/07/29 00:20:58;;;;;;;;;;;;;;;;;;4949777;28;19925;-78
2023/07/29 00:23:45;;;;;;;;;;;;;;;;;;4949846;28;20458;-79
2023/07/29 00:26:31;;;;;;;;;;;;;;;;;;4963963;28;19918;-81
2023/07/29 00:29:18;;;;;;;;;;;;;;;;;;4934015;28;19930;-81
2023/07/29 00:32:04;;;;;;;;;;;;;;;;;;4956312;28;19982;-80
2023/07/29 00:34:52;;;;;;;;;;;;;;;;;;4952421;28;19923;-78
2023/07/29 00:37:39;;;;;;;;;;;;;;;;;;4940103;28;19938;-80
2023/07/29 00:40:26;;;;;;;;;;;;;;;;;;4934708;28;20409;-79
2023/07/29 00:43:12;;;;;;;;;;;;;;;;;;4945100;28;19928;-79
2023/07/29 00:45:59;;;;;;;;;;;;;;;;;;4961969;28;19922;-78
2023/07/29 00:48:45;;;;;;;;;;;;;;;;;;4951760;28;20431;-79
2023/07/29 00:51:32;;;;;;;;;;;;;;;;;;4936131;28;19938;-79
2023/07/29 00:54:18;;;;;;;;;;;;;;;;;;4941239;28;19941;-79
2023/07/29 00:57:05;;;;;;;;;;;;;;;;;;4935473;28;19922;-78
2023/07/29 00:59:51;;;;;;;;;;;;;;;;;;4954324;28;19937;-77
2023/07/29 01:02:38;;;;;;;;;;;;;;;;;;4958134;28;19932;-79
2023/07/29 01:05:24;;;;;;;;;;;;;;;;;;4950323;28;19915;-78
2023/07/29 01:08:11;;;;;;;;;;;;;;;;;;4960631;28;19918;-78
2023/07/29 01:10:57;;;;;;;;;;;;;;;;;;4949446;28;19926;-80
2023/07/29 01:13:44;;;;;;;;;;;;;;;;;;4944052;28;19922;-80
2023/07/29 01:16:30;;;;;;;;;;;;;;;;;;4952589;28;20531;-79
2023/07/29 01:19:17;;;;;;;;;;;;;;;;;;4959125;28;19926;-79
2023/07/29 01:22:03;;;;;;;;;;;;;;;;;;4959265;28;19915;-78
2023/07/29 01:24:50;;;;;;;;;;;;;;;;;;4966323;28;19922;-79
2023/07/29 01:27:36;;;;;;;;;;;;;;;;;;4967759;28;20392;-79
2023/07/29 01:30:23;;;;;;;;;;;;;;;;;;4948059;28;19926;-78
2023/07/29 01:33:10;;;;;;;;;;;;;;;;;;4948983;28;19926;-78
2023/07/29 01:35:56;;;;;;;;;;;;;;;;;;4947329;28;19922;-79
2023/07/29 01:38:42;;;;;;;;;;;;;;;;;;4949539;28;19937;-78
2023/07/29 01:41:29;;;;;;;;;;;;;;;;;;4947074;28;19926;-79
2023/07/29 01:44:15;;;;;;;;;;;;;;;;;;4949085;28;20038;-79
2023/07/29 01:47:02;;;;;;;;;;;;;;;;;;4947637;28;19918;-79
2023/07/29 01:49:48;;;;;;;;;;;;;;;;;;4939739;28;19914;-79
2023/07/29 01:52:35;;;;;;;;;;;;;;;;;;4946412;28;19918;-79
2023/07/29 01:55:22;;;;;;;;;;;;;;;;;;4947311;28;19941;-80
2023/07/29 01:58:08;;;;;;;;;;;;;;;;;;4950157;28;20271;-79
2023/07/29 02:00:55;;;;;;;;;;;;;;;;;;4966964;28;19931;-79
2023/07/29 02:03:41;;;;;;;;;;;;;;;;;;4966478;28;19934;-80
2023/07/29 02:06:28;;;;;;;;;;;;;;;;;;4947446;28;19945;-79
2023/07/29 02:09:14;;;;;;;;;;;;;;;;;;4965348;28;19931;-80
2023/07/29 02:12:01;;;;;;;;;;;;;;;;;;4962582;28;19918;-79
2023/07/29 02:14:47;;;;;;;;;;;;;;;;;;4967337;28;19932;-78
2023/07/29 02:17:34;;;;;;;;;;;;;;;;;;4962342;28;20437;-78
2023/07/29 02:20:20;;;;;;;;;;;;;;;;;;4967009;28;19922;-79
2023/07/29 02:23:07;;;;;;;;;;;;;;;;;;4950866;28;20387;-78
2023/07/29 02:25:53;;;;;;;;;;;;;;;;;;4960419;28;19930;-79
2023/07/29 02:28:40;;;;;;;;;;;;;;;;;;4959684;28;19918;-79
2023/07/29 02:31:26;;;;;;;;;;;;;;;;;;4964866;28;19918;-79
2023/07/29 02:34:13;;;;;;;;;;;;;;;;;;4965107;28;19940;-79
2023/07/29 02:37:00;;;;;;;;;;;;;;;;;;4959217;28;19925;-79
2023/07/29 02:39:46;;;;;;;;;;;;;;;;;;4962179;28;20128;-78
2023/07/29 02:42:33;;;;;;;;;;;;;;;;;;4950388;28;20210;-78
2023/07/29 02:45:19;;;;;;;;;;;;;;;;;;4946098;28;19923;-78
2023/07/29 02:48:06;;;;;;;;;;;;;;;;;;4949085;28;19915;-79
2023/07/29 02:50:52;;;;;;;;;;;;;;;;;;4952620;28;19929;-80
2023/07/29 02:53:39;;;;;;;;;;;;;;;;;;4966320;28;19922;-79
2023/07/29 02:56:25;;;;;;;;;;;;;;;;;;4959359;28;19924;-79
2023/07/29 02:59:11;;;;;;;;;;;;;;;;;;4965211;28;19932;-80
2023/07/29 03:01:58;;;;;;;;;;;;;;;;;;4978748;28;19914;-80
2023/07/29 03:04:44;;;;;;;;;;;;;;;;;;4970979;28;19922;-81
2023/07/29 03:07:31;;;;;;;;;;;;;;;;;;4966898;28;19918;-81
2023/07/29 03:10:17;;;;;;;;;;;;;;;;;;4961959;28;19944;-82
2023/07/29 03:13:04;;;;;;;;;;;;;;;;;;4963148;28;19953;-80
2023/07/29 03:15:50;;;;;;;;;;;;;;;;;;4965250;28;19922;-79
2023/07/29 03:18:37;;;;;;;;;;;;;;;;;;4944753;28;19953;-79
2023/07/29 03:21:23;;;;;;;;;;;;;;;;;;4957308;28;19922;-79
2023/07/29 03:24:10;;;;;;;;;;;;;;;;;;4958912;28;19918;-79
2023/07/29 03:26:56;;;;;;;;;;;;;;;;;;4963544;28;20029;-79
2023/07/29 03:29:43;;;;;;;;;;;;;;;;;;4962205;28;19926;-77
2023/07/29 03:32:29;;;;;;;;;;;;;;;;;;4960406;28;19920;-78
2023/07/29 03:35:16;;;;;;;;;;;;;;;;;;4960734;28;19924;-79
2023/07/29 03:38:02;;;;;;;;;;;;;;;;;;4951868;28;19926;-79
2023/07/29 03:40:49;;;;;;;;;;;;;;;;;;4954738;28;19919;-79
2023/07/29 03:43:35;;;;;;;;;;;;;;;;;;4962140;28;19922;-79
2023/07/29 03:46:22;;;;;;;;;;;;;;;;;;4958784;28;19918;-79
2023/07/29 03:49:08;;;;;;;;;;;;;;;;;;4956814;28;19925;-80
2023/07/29 03:51:55;;;;;;;;;;;;;;;;;;4959367;28;19914;-79
2023/07/29 03:54:41;;;;;;;;;;;;;;;;;;4963609;28;19922;-80
2023/07/29 03:57:28;;;;;;;;;;;;;;;;;;4958673;28;19941;-79
2023/07/29 04:00:15;;;;;;;;;;;;;;;;;;4959031;28;20362;-79
2023/07/29 04:03:01;;;;;;;;;;;;;;;;;;4955697;28;19918;-80
2023/07/29 04:05:48;;;;;;;;;;;;;;;;;;4960724;28;19929;-79
2023/07/29 04:08:34;;;;;;;;;;;;;;;;;;4963159;28;20362;-80
2023/07/29 04:11:27;;;;;;;;;;;;;;;;;;4949540;28;19922;-82
2023/07/29 04:14:14;;;;;;;;;;;;;;;;;;4948646;28;19921;-79
2023/07/29 04:17:00;;;;;;;;;;;;;;;;;;4957539;28;19926;-79
2023/07/29 04:19:47;;;;;;;;;;;;;;;;;;4959296;28;19933;-80
2023/07/29 04:22:33;;;;;;;;;;;;;;;;;;4938581;28;19944;-80
2023/07/29 04:25:20;;;;;;;;;;;;;;;;;;4939639;28;19929;-81
2023/07/29 04:28:06;;;;;;;;;;;;;;;;;;4948578;28;19915;-81
2023/07/29 04:30:53;;;;;;;;;;;;;;;;;;4941549;28;20661;-80
2023/07/29 04:33:39;;;;;;;;;;;;;;;;;;4952112;28;19929;-81
2023/07/29 04:36:26;;;;;;;;;;;;;;;;;;4948698;28;19922;-81
2023/07/29 04:39:12;;;;;;;;;;;;;;;;;;4951034;28;19926;-80
2023/07/29 04:41:58;;;;;;;;;;;;;;;;;;4959776;28;20612;-80
2023/07/29 04:44:45;;;;;;;;;;;;;;;;;;4948222;28;19922;-81
2023/07/29 04:47:31;;;;;;;;;;;;;;;;;;4970764;28;19918;-79
2023/07/29 04:50:18;;;;;;;;;;;;;;;;;;4971856;28;19922;-80
2023/07/29 04:53:04;;;;;;;;;;;;;;;;;;4958214;28;19923;-79
2023/07/29 04:55:51;;;;;;;;;;;;;;;;;;4962499;28;19922;-80
2023/07/29 04:58:38;;;;;;;;;;;;;;;;;;4969792;28;19929;-80
2023/07/29 05:01:25;;;;;;;;;;;;;;;;;;4969130;28;20574;-80
2023/07/29 05:04:11;;;;;;;;;;;;;;;;;;4966807;28;19918;-80
2023/07/29 05:06:58;;;;;;;;;;;;;;;;;;4966775;28;19925;-80
2023/07/29 05:09:44;;;;;;;;;;;;;;;;;;4970576;28;19922;-82
2023/07/29 05:12:32;;;;;;;;;;;;;;;;;;4975924;28;19968;-82
2023/07/29 05:15:19;;;;;;;;;;;;;;;;;;4975055;28;19932;-84
2023/07/29 05:18:05;;;;;;;;;;;;;;;;;;4976732;28;19929;-83
2023/07/29 05:20:52;;;;;;;;;;;;;;;;;;4971754;28;19933;-81
2023/07/29 05:23:38;;;;;;;;;;;;;;;;;;5000011;28;19926;-83
2023/07/29 05:26:25;;;;;;;;;;;;;;;;;;4974237;28;19925;-83
2023/07/29 05:29:11;;;;;;;;;;;;;;;;;;4969137;28;20037;-80
2023/07/29 05:31:58;;;;;;;;;;;;;;;;;;4966835;28;19922;-80
2023/07/29 05:34:44;;;;;;;;;;;;;;;;;;4957138;28;19922;-80
2023/07/29 05:37:31;;;;;;;;;;;;;;;;;;4966095;28;19922;-80
2023/07/29 05:40:17;;;;;;;;;;;;;;;;;;4966986;28;19926;-81
2023/07/29 05:43:04;;;;;;;;;;;;;;;;;;4976893;28;19940;-79
2023/07/29 05:45:50;;;;;;;;;;;;;;;;;;4968448;28;19968;-79
2023/07/29 05:48:37;;;;;;;;;;;;;;;;;;4974657;28;19922;-80
2023/07/29 05:51:23;;;;;;;;;;;;;;;;;;4967221;28;19922;-81
2023/07/29 05:54:10;;;;;;;;;;;;;;;;;;4965522;28;19925;-79
2023/07/29 05:56:56;;;;;;;;;;;;;;;;;;4962876;28;19918;-79
2023/07/29 05:59:43;;;;;;;;;;;;;;;;;;4945443;28;19930;-79
2023/07/29 06:02:29;;;;;;;;;;;;;;;;;;4962597;28;19928;-79
2023/07/29 06:05:16;;;;;;;;;;;;;;;;;;4972788;28;20659;-80
2023/07/29 06:08:02;;;;;;;;;;;;;;;;;;4968494;28;19957;-80
2023/07/29 06:10:49;;;;;;;;;;;;;;;;;;4971927;28;19972;-78
2023/07/29 06:13:35;;;;;;;;;;;;;;;;;;4969213;28;19929;-80
2023/07/29 06:16:22;;;;;;;;;;;;;;;;;;4967120;28;19933;-80
2023/07/29 06:19:08;;;;;;;;;;;;;;;;;;4971245;28;19934;-80
2023/07/29 06:21:55;;;;;;;;;;;;;;;;;;4951419;28;19922;-80
2023/07/29 06:24:41;;;;;;;;;;;;;;;;;;4968935;28;19926;-80
2023/07/29 06:27:28;;;;;;;;;;;;;;;;;;4974354;28;19926;-80
2023/07/29 06:30:14;;;;;;;;;;;;;;;;;;4965395;28;20398;-79
2023/07/29 06:33:02;;;;;;;;;;;;;;;;;;4967792;28;19922;-80
2023/07/29 06:35:49;;;;;;;;;;;;;;;;;;4954690;28;19919;-80
2023/07/29 06:38:36;;;;;;;;;;;;;;;;;;4957711;28;19930;-82
2023/07/29 06:41:23;;;;;;;;;;;;;;;;;;4968625;28;19926;-81
2023/07/29 06:44:09;;;;;;;;;;;;;;;;;;4946869;28;19927;-81
2023/07/29 06:46:56;;;;;;;;;;;;;;;;;;4947912;28;19925;-81
2023/07/29 06:49:42;;;;;;;;;;;;;;;;;;4951814;28;19929;-79
2023/07/29 06:52:29;;;;;;;;;;;;;;;;;;4956215;28;19922;-79
2023/07/29 06:55:15;;;;;;;;;;;;;;;;;;4958460;28;20475;-80
2023/07/29 06:58:02;;;;;;;;;;;;;;;;;;4953865;28;19930;-80
2023/07/29 07:00:48;;;;;;;;;;;;;;;;;;4950398;28;20460;-79
2023/07/29 07:03:35;;;;;;;;;;;;;;;;;;4948145;28;19918;-80
2023/07/29 07:06:21;;;;;;;;;;;;;;;;;;4948640;28;19923;-80
2023/07/29 07:09:08;;;;;;;;;;;;;;;;;;4969510;28;19943;-81
2023/07/29 07:11:54;;;;;;;;;;;;;;;;;;4965152;28;20378;-79
2023/07/29 07:14:41;;;;;;;;;;;;;;;;;;4966928;28;19929;-78
2023/07/29 07:17:27;;;;;;;;;;;;;;;;;;4951398;28;19922;-79
2023/07/29 07:20:14;;;;;;;;;;;;;;;;;;4950713;28;19941;-80
2023/07/29 07:23:00;;;;;;;;;;;;;;;;;;4947636;28;19925;-79
2023/07/29 07:25:47;;;;;;;;;;;;;;;;;;4964068;28;19922;-79
2023/07/29 07:28:33;;;;;;;;;;;;;;;;;;4957685;28;19926;-79
2023/07/29 07:31:20;;;;;;;;;;;;;;;;;;4950252;28;19925;-77
2023/07/29 07:34:06;;;;;;;;;;;;;;;;;;4961713;28;19922;-78
2023/07/29 07:36:52;;;;;;;;;;;;;;;;;;4966038;28;19925;-79
2023/07/29 07:39:39;;;;;;;;;;;;;;;;;;4964612;28;19926;-77
2023/07/29 07:42:25;;;;;;;;;;;;;;;;;;4959695;28;20495;-78
2023/07/29 07:45:12;;;;;;;;;;;;;;;;;;4936521;28;19923;-79
2023/07/29 07:47:59;;;;;;;;;;;;;;;;;;4957909;28;19926;-78
2023/07/29 07:50:45;;;;;;;;;;;;;;;;;;4966737;28;19922;-78
2023/07/29 07:53:31;;;;;;;;;;;;;;;;;;4969542;28;19925;-77
2023/07/29 07:56:18;;;;;;;;;;;;;;;;;;4964568;28;19980;-76
2023/07/29 07:59:04;;;;;;;;;;;;;;;;;;4965763;28;20309;-76
2023/07/29 08:01:52;;;;;;;;;;;;;;;;;;4964802;28;19925;-75
2023/07/29 08:04:38;;;;;;;;;;;;;;;;;;4958914;28;19918;-75
2023/07/29 08:07:25;;;;;;;;;;;;;;;;;;4967170;28;19933;-76
2023/07/29 08:10:11;;;;;;;;;;;;;;;;;;4966066;28;20511;-74
2023/07/29 08:12:58;;;;;;;;;;;;;;;;;;4965925;28;19922;-76
2023/07/29 08:15:45;;;;;;;;;;;;;;;;;;4948762;28;20337;-74
2023/07/29 08:18:31;;;;;;;;;;;;;;;;;;4951425;28;19927;-75
2023/07/29 08:21:18;;;;;;;;;;;;;;;;;;4947504;28;19919;-76
2023/07/29 08:24:04;;;;;;;;;;;;;;;;;;4944535;28;19945;-75
2023/07/29 08:26:51;;;;;;;;;;;;;;;;;;4952308;28;19922;-74
2023/07/29 08:29:37;;;;;;;;;;;;;;;;;;4952475;28;20373;-76
2023/07/29 08:32:24;;;;;;;;;;;;;;;;;;4945769;28;19927;-76
2023/07/29 08:35:10;;;;;;;;;;;;;;;;;;4947315;28;19934;-75
2023/07/29 08:37:57;;;;;;;;;;;;;;;;;;4952525;28;19945;-73
2023/07/29 08:40:43;;;;;;;;;;;;;;;;;;4947903;28;19934;-74
2023/07/29 08:43:33;;;;;;;;;;;;;;;;;;4948752;28;20300;-75
2023/07/29 08:46:19;;;;;;;;;;;;;;;;;;4949015;28;19954;-75
2023/07/29 08:49:06;;;;;;;;;;;;;;;;;;4946472;28;20314;-76
2023/07/29 08:51:52;;;;;;;;;;;;;;;;;;4937227;28;19923;-75
2023/07/29 08:54:39;;;;;;;;;;;;;;;;;;4947811;28;20018;-75
2023/07/29 08:57:26;;;;;;;;;;;;;;;;;;4954522;28;19922;-75
2023/07/29 09:00:12;;;;;;;;;;;;;;;;;;4962938;28;20341;-75
2023/07/29 09:03:04;;;;;;;;;;;;;;;;;;4966139;28;19937;-74
2023/07/29 09:05:50;;;;;;;;;;;;;;;;;;4967244;28;19922;-75
2023/07/29 09:08:37;;;;;;;;;;;;;;;;;;4965651;28;20274;-76
2023/07/29 09:11:23;;;;;;;;;;;;;;;;;;4948126;28;19922;-74
2023/07/29 09:14:10;;;;;;;;;;;;;;;;;;4971970;28;19941;-76
2023/07/29 09:16:56;;;;;;;;;;;;;;;;;;4963424;28;19922;-74
2023/07/29 09:19:43;;;;;;;;;;;;;;;;;;4958909;28;19941;-75
2023/07/29 09:22:29;;;;;;;;;;;;;;;;;;4959996;28;20676;-75
2023/07/29 09:25:17;;;;;;;;;;;;;;;;;;4968964;28;19929;-77
2023/07/29 09:28:03;;;;;;;;;;;;;;;;;;4960154;28;19922;-75
2023/07/29 09:30:51;;;;;;;;;;;;;;;;;;4970661;28;20297;-74
2023/07/29 09:33:37;;;;;;;;;;;;;;;;;;4970202;28;19923;-74
2023/07/29 09:36:24;;;;;;;;;;;;;;;;;;4968274;28;19922;-74
2023/07/29 09:39:10;;;;;;;;;;;;;;;;;;4966233;28;19953;-74
2023/07/29 09:41:56;;;;;;;;;;;;;;;;;;4963913;28;19922;-75
2023/07/29 09:44:43;;;;;;;;;;;;;;;;;;4974707;28;19929;-74
2023/07/29 09:47:29;;;;;;;;;;;;;;;;;;4951439;28;20297;-75
2023/07/29 09:50:16;;;;;;;;;;;;;;;;;;4965516;28;19921;-74
2023/07/29 09:53:03;;;;;;;;;;;;;;;;;;4965165;28;19929;-75
2023/07/29 09:55:50;;;;;;;;;;;;;;;;;;4963447;28;19914;-74
2023/07/29 09:58:38;;;;;;;;;;;;;;;;;;4966548;28;19932;-74
2023/07/29 10:01:24;;;;;;;;;;;;;;;;;;4960723;28;19924;-74
2023/07/29 10:04:11;;;;;;;;;;;;;;;;;;4958720;28;21140;-74
2023/07/29 10:06:57;;;;;;;;;;;;;;;;;;4964182;28;19926;-75
2023/07/29 10:09:44;;;;;;;;;;;;;;;;;;4960677;28;20009;-76
2023/07/29 10:12:30;;;;;;;;;;;;;;;;;;4964585;28;20267;-73
2023/07/29 10:15:17;;;;;;;;;;;;;;;;;;4946822;28;19929;-75
2023/07/29 10:18:03;;;;;;;;;;;;;;;;;;4962984;28;19922;-76
2023/07/29 10:20:50;;;;;;;;;;;;;;;;;;4955505;28;19931;-77
2023/07/29 10:23:36;;;;;;;;;;;;;;;;;;4971163;28;19956;-76
2023/07/29 10:26:23;;;;;;;;;;;;;;;;;;4959243;28;19932;-76
2023/07/29 10:29:09;;;;;;;;;;;;;;;;;;4952911;28;19918;-75
2023/07/29 10:31:56;;;;;;;;;;;;;;;;;;4946197;28;20485;-76
2023/07/29 10:34:42;;;;;;;;;;;;;;;;;;4948917;28;19929;-76
2023/07/29 10:37:29;;;;;;;;;;;;;;;;;;4969085;28;19919;-77
2023/07/29 10:40:15;;;;;;;;;;;;;;;;;;4941997;28;19937;-76
2023/07/29 10:43:05;;;;;;;;;;;;;;;;;;4948349;28;19918;-76
2023/07/29 10:45:51;;;;;;;;;;;;;;;;;;4954958;28;20369;-76
2023/07/29 10:48:38;;;;;;;;;;;;;;;;;;4965416;28;19918;-75
2023/07/29 10:51:29;;;;;;;;;;;;;;;;;;4936348;28;19922;-76
2023/07/29 10:54:16;;;;;;;;;;;;;;;;;;4972001;28;19919;-82
2023/07/29 10:57:02;;;;;;;;;;;;;;;;;;4969116;28;19922;-78
2023/07/29 10:59:49;;;;;;;;;;;;;;;;;;4964295;28;19926;-77
2023/07/29 11:02:35;;;;;;;;;;;;;;;;;;4966575;28;19924;-76
2023/07/29 11:05:22;;;;;;;;;;;;;;;;;;4966359;28;20117;-76
2023/07/29 11:08:08;;;;;;;;;;;;;;;;;;4952395;28;19926;-77
2023/07/29 11:10:55;;;;;;;;;;;;;;;;;;4967318;28;20024;-78
2023/07/29 11:13:41;;;;;;;;;;;;;;;;;;4969928;28;20293;-77
2023/07/29 11:16:28;;;;;;;;;;;;;;;;;;4952199;28;19956;-77
2023/07/29 11:19:14;;;;;;;;;;;;;;;;;;4955371;28;19937;-76
2023/07/29 11:22:02;;;;;;;;;;;;;;;;;;4969341;28;19922;-75
2023/07/29 11:24:48;;;;;;;;;;;;;;;;;;4963565;28;19926;-76
2023/07/29 11:27:35;;;;;;;;;;;;;;;;;;4960884;28;20193;-76
2023/07/29 11:30:31;;;;;;;;;;;;;;;;;;4968399;28;19928;-75
2023/07/29 11:33:17;;;;;;;;;;;;;;;;;;4963251;28;19954;-75
2023/07/29 11:36:04;;;;;;;;;;;;;;;;;;4965497;28;19922;-77
2023/07/29 11:38:50;;;;;;;;;;;;;;;;;;4959886;28;19930;-78
2023/07/29 11:41:36;;;;;;;;;;;;;;;;;;4963227;28;20440;-75
2023/07/29 11:44:23;;;;;;;;;;;;;;;;;;4942931;28;19918;-75
2023/07/29 11:47:09;;;;;;;;;;;;;;;;;;4948747;28;19929;-77
2023/07/29 11:49:56;;;;;;;;;;;;;;;;;;4941558;28;20440;-77
2023/07/29 11:52:42;;;;;;;;;;;;;;;;;;4943672;28;19926;-76
2023/07/29 11:55:29;;;;;;;;;;;;;;;;;;4943142;28;19922;-77
2023/07/29 11:58:15;;;;;;;;;;;;;;;;;;4954169;28;19930;-77
2023/07/29 12:01:02;;;;;;;;;;;;;;;;;;4961783;28;20378;-77
2023/07/29 12:03:49;;;;;;;;;;;;;;;;;;4956702;28;19929;-77
2023/07/29 12:06:35;;;;;;;;;;;;;;;;;;4953720;28;19926;-76
2023/07/29 12:09:22;;;;;;;;;;;;;;;;;;4957122;28;19926;-77
2023/07/29 12:12:08;;;;;;;;;;;;;;;;;;4964361;28;19973;-76
2023/07/29 12:14:55;;;;;;;;;;;;;;;;;;4963219;28;19922;-75
2023/07/29 12:17:41;;;;;;;;;;;;;;;;;;4959382;28;19924;-77
2023/07/29 12:20:28;;;;;;;;;;;;;;;;;;4962417;28;19926;-77
2023/07/29 12:23:14;;;;;;;;;;;;;;;;;;4960793;28;19922;-76
2023/07/29 12:26:01;;;;;;;;;;;;;;;;;;4943522;28;20064;-76
2023/07/29 12:28:47;;;;;;;;;;;;;;;;;;4951466;28;19926;-75
2023/07/29 12:31:34;;;;;;;;;;;;;;;;;;4961614;28;19922;-77
2023/07/29 12:34:20;;;;;;;;;;;;;;;;;;4962393;28;19925;-77
2023/07/29 12:37:07;;;;;;;;;;;;;;;;;;4939349;28;19922;-76
2023/07/29 12:39:53;;;;;;;;;;;;;;;;;;4942381;28;19934;-78
2023/07/29 12:42:40;;;;;;;;;;;;;;;;;;4951021;28;19930;-76
2023/07/29 12:45:26;;;;;;;;;;;;;;;;;;4947327;28;19929;-77
2023/07/29 12:48:13;;;;;;;;;;;;;;;;;;4942464;28;19929;-78
2023/07/29 12:50:59;;;;;;;;;;;;;;;;;;4942909;28;19922;-76
2023/07/29 12:53:46;;;;;;;;;;;;;;;;;;4945619;28;20338;-76
2023/07/29 12:56:32;;;;;;;;;;;;;;;;;;4951909;28;19925;-77
2023/07/29 12:59:19;;;;;;;;;;;;;;;;;;4956046;28;19930;-77
2023/07/29 13:02:05;;;;;;;;;;;;;;;;;;4948449;28;20463;-76
2023/07/29 13:04:52;;;;;;;;;;;;;;;;;;4955929;28;19922;-77
2023/07/29 13:07:38;;;;;;;;;;;;;;;;;;4945811;28;19930;-77
2023/07/29 13:10:25;;;;;;;;;;;;;;;;;;4947968;28;20284;-79
2023/07/29 13:13:11;;;;;;;;;;;;;;;;;;4956818;28;19925;-77
2023/07/29 13:15:58;;;;;;;;;;;;;;;;;;4951415;28;19926;-76
2023/07/29 13:18:44;;;;;;;;;;;;;;;;;;4955596;28;19960;-76
2023/07/29 13:21:31;;;;;;;;;;;;;;;;;;4950264;28;19922;-77
2023/07/29 13:24:17;;;;;;;;;;;;;;;;;;4952238;28;19949;-76
2023/07/29 13:27:04;;;;;;;;;;;;;;;;;;4948296;28;20384;-76
2023/07/29 13:29:50;;;;;;;;;;;;;;;;;;4952729;28;19918;-74
2023/07/29 13:32:37;;;;;;;;;;;;;;;;;;4945965;28;19919;-76
2023/07/29 13:35:23;;;;;;;;;;;;;;;;;;4956817;28;19918;-75
2023/07/29 13:38:10;;;;;;;;;;;;;;;;;;4947062;28;19926;-76
2023/07/29 13:40:57;;;;;;;;;;;;;;;;;;4949809;28;19934;-75
2023/07/29 13:43:43;;;;;;;;;;;;;;;;;;4951708;28;19929;-75
2023/07/29 13:46:30;;;;;;;;;;;;;;;;;;4949997;28;19929;-77
2023/07/29 13:49:16;;;;;;;;;;;;;;;;;;4947607;28;19922;-77
2023/07/29 13:52:03;;;;;;;;;;;;;;;;;;4950803;28;19922;-76
2023/07/29 13:54:50;;;;;;;;;;;;;;;;;;4945874;28;19922;-77
2023/07/29 13:57:39;;;;;;;;;;;;;;;;;;4949465;28;20379;-76
2023/07/29 14:00:26;;;;;;;;;;;;;;;;;;4936893;28;20322;-78
2023/07/29 14:03:12;;;;;;;;;;;;;;;;;;4945606;28;19922;-76
2023/07/29 14:05:59;;;;;;;;;;;;;;;;;;4949642;28;19925;-77
2023/07/29 14:08:45;;;;;;;;;;;;;;;;;;4958830;28;19926;-78
2023/07/29 14:11:32;;;;;;;;;;;;;;;;;;4970709;28;19926;-76
2023/07/29 14:14:18;;;;;;;;;;;;;;;;;;4965031;28;19929;-74
2023/07/29 14:17:05;;;;;;;;;;;;;;;;;;4953475;28;20811;-76
2023/07/29 14:19:51;;;;;;;;;;;;;;;;;;4966853;28;19930;-75
2023/07/29 14:22:38;;;;;;;;;;;;;;;;;;4971312;28;19922;-75
2023/07/29 14:25:24;;;;;;;;;;;;;;;;;;4973024;28;19923;-75
2023/07/29 14:28:11;;;;;;;;;;;;;;;;;;4950195;28;19926;-74
2023/07/29 14:30:58;;;;;;;;;;;;;;;;;;4941457;28;19954;-74
2023/07/29 14:33:44;;;;;;;;;;;;;;;;;;4944189;28;19919;-76
2023/07/29 14:36:31;;;;;;;;;;;;;;;;;;4981875;28;19929;-76
2023/07/29 14:39:17;;;;;;;;;;;;;;;;;;4965075;28;19930;-76
2023/07/29 14:42:04;;;;;;;;;;;;;;;;;;4964885;28;19921;-75
2023/07/29 14:44:50;;;;;;;;;;;;;;;;;;4954838;28;19926;-75
2023/07/29 14:47:37;;;;;;;;;;;;;;;;;;4958324;28;19922;-75
2023/07/29 14:50:23;;;;;;;;;;;;;;;;;;4964111;28;19922;-74
2023/07/29 14:53:10;;;;;;;;;;;;;;;;;;4945720;28;19952;-77
2023/07/29 14:55:56;;;;;;;;;;;;;;;;;;4964812;28;20688;-77
2023/07/29 14:58:43;;;;;;;;;;;;;;;;;;4942017;28;19930;-76
2023/07/29 15:01:29;;;;;;;;;;;;;;;;;;4938234;28;20294;-75
2023/07/29 15:04:16;;;;;;;;;;;;;;;;;;4947032;28;19923;-76
2023/07/29 15:07:02;;;;;;;;;;;;;;;;;;4937656;28;19925;-74
2023/07/29 15:09:49;;;;;;;;;;;;;;;;;;4943552;28;19929;-76
2023/07/29 15:12:35;;;;;;;;;;;;;;;;;;4942699;28;19919;-76
2023/07/29 15:15:22;;;;;;;;;;;;;;;;;;4944711;28;20614;-75
2023/07/29 15:18:08;;;;;;;;;;;;;;;;;;4945289;28;19927;-76
2023/07/29 15:20:55;;;;;;;;;;;;;;;;;;4943714;28;19933;-75
2023/07/29 15:23:42;;;;;;;;;;;;;;;;;;4941943;28;20393;-74
2023/07/29 15:26:28;;;;;;;;;;;;;;;;;;4944576;28;19925;-74
2023/07/29 15:29:15;;;;;;;;;;;;;;;;;;4941092;28;19919;-77
2023/07/29 15:32:01;;;;;;;;;;;;;;;;;;4944351;28;19929;-75
2023/07/29 15:34:48;;;;;;;;;;;;;;;;;;4943842;28;20385;-77
2023/07/29 15:37:34;;;;;;;;;;;;;;;;;;4944700;28;20393;-75
2023/07/29 15:40:21;;;;;;;;;;;;;;;;;;4944695;28;19937;-75
2023/07/29 15:43:07;;;;;;;;;;;;;;;;;;4945835;28;19918;-74
2023/07/29 15:45:54;;;;;;;;;;;;;;;;;;4943289;28;19923;-75
2023/07/29 15:48:40;;;;;;;;;;;;;;;;;;4939620;28;20297;-76
2023/07/29 15:51:27;;;;;;;;;;;;;;;;;;4942840;28;19929;-75
2023/07/29 15:54:13;;;;;;;;;;;;;;;;;;4941786;28;19919;-76
2023/07/29 15:56:59;;;;;;;;;;;;;;;;;;4940465;28;19923;-75
2023/07/29 15:59:46;;;;;;;;;;;;;;;;;;4941094;28;19930;-77
2023/07/29 16:02:32;;;;;;;;;;;;;;;;;;4956146;28;20377;-75
2023/07/29 16:05:19;;;;;;;;;;;;;;;;;;4934664;28;19922;-74
2023/07/29 16:08:05;;;;;;;;;;;;;;;;;;4948357;28;19919;-77
2023/07/29 16:10:52;;;;;;;;;;;;;;;;;;4955610;28;20514;-76
2023/07/29 16:13:38;;;;;;;;;;;;;;;;;;4943510;28;19930;-77
2023/07/29 16:16:26;;;;;;;;;;;;;;;;;;4940533;28;19935;-78
2023/07/29 16:19:12;;;;;;;;;;;;;;;;;;4943470;28;19933;-75
2023/07/29 16:21:59;;;;;;;;;;;;;;;;;;4937962;28;19941;-76
2023/07/29 16:24:46;;;;;;;;;;;;;;;;;;4943491;28;20286;-76
2023/07/29 16:27:32;;;;;;;;;;;;;;;;;;4946284;28;19929;-76
2023/07/29 16:30:19;;;;;;;;;;;;;;;;;;4944689;28;19924;-76
2023/07/29 16:33:05;;;;;;;;;;;;;;;;;;4943361;28;19926;-78
2023/07/29 16:35:52;;;;;;;;;;;;;;;;;;4942535;28;19923;-76
2023/07/29 16:38:38;;;;;;;;;;;;;;;;;;4947484;28;19921;-77
2023/07/29 16:41:25;;;;;;;;;;;;;;;;;;4948562;28;19934;-76
2023/07/29 16:44:11;;;;;;;;;;;;;;;;;;4948645;28;19923;-77
2023/07/29 16:46:58;;;;;;;;;;;;;;;;;;4940762;28;20445;-77
2023/07/29 16:49:45;;;;;;;;;;;;;;;;;;4949255;28;19915;-76
2023/07/29 16:52:31;;;;;;;;;;;;;;;;;;4942286;28;19919;-77
2023/07/29 16:55:18;;;;;;;;;;;;;;;;;;4947214;28;19929;-77
2023/07/29 16:58:05;;;;;;;;;;;;;;;;;;4950419;28;19937;-76
2023/07/29 17:00:52;;;;;;;;;;;;;;;;;;4946098;28;19927;-77
2023/07/29 17:03:38;;;;;;;;;;;;;;;;;;4940366;28;19922;-77
2023/07/29 17:06:25;;;;;;;;;;;;;;;;;;4958787;28;19925;-77
2023/07/29 17:09:11;;;;;;;;;;;;;;;;;;4955480;28;19926;-76
2023/07/29 17:12:00;;;;;;;;;;;;;;;;;;4938797;28;20210;-78
2023/07/29 17:14:47;;;;;;;;;;;;;;;;;;4952655;28;19926;-78
2023/07/29 17:17:33;;;;;;;;;;;;;;;;;;4964495;28;19937;-78
2023/07/29 17:20:20;;;;;;;;;;;;;;;;;;4950198;28;20413;-78
2023/07/29 17:23:06;;;;;;;;;;;;;;;;;;4965720;28;19944;-78
2023/07/29 17:25:53;;;;;;;;;;;;;;;;;;4960246;28;19909;-77
2023/07/29 17:28:39;;;;;;;;;;;;;;;;;;4969932;28;20294;-79
2023/07/29 17:31:26;;;;;;;;;;;;;;;;;;4956166;28;19955;-77
2023/07/29 17:34:12;;;;;;;;;;;;;;;;;;4951097;28;19930;-78
2023/07/29 17:36:59;;;;;;;;;;;;;;;;;;4945221;28;19919;-78
2023/07/29 17:39:45;;;;;;;;;;;;;;;;;;4952033;28;19923;-78
2023/07/29 17:42:32;;;;;;;;;;;;;;;;;;4975811;28;19922;-78
2023/07/29 17:45:19;;;;;;;;;;;;;;;;;;4975365;28;19926;-77
2023/07/29 17:48:05;;;;;;;;;;;;;;;;;;4980748;28;20005;-79
2023/07/29 17:50:51;;;;;;;;;;;;;;;;;;4987079;28;20314;-75
2023/07/29 17:53:38;;;;;;;;;;;;;;;;;;4986971;28;19929;-77
2023/07/29 17:56:26;;;;;;;;;;;;;;;;;;4989024;28;19917;-78
2023/07/29 17:59:12;;;;;;;;;;;;;;;;;;4959770;28;20433;-78
2023/07/29 18:01:59;;;;;;;;;;;;;;;;;;4947466;28;19933;-77
2023/07/29 18:04:46;;;;;;;;;;;;;;;;;;4979225;28;19919;-78
2023/07/29 18:07:33;;;;;;;;;;;;;;;;;;4953640;28;19925;-77
2023/07/29 18:10:19;;;;;;;;;;;;;;;;;;4975731;28;20142;-77
2023/07/29 18:13:06;;;;;;;;;;;;;;;;;;4950644;28;19994;-76
2023/07/29 18:15:53;;;;;;;;;;;;;;;;;;4953890;28;19922;-78
2023/07/29 18:18:39;;;;;;;;;;;;;;;;;;4944111;28;19914;-78
2023/07/29 18:21:26;;;;;;;;;;;;;;;;;;4944555;28;19936;-76
2023/07/29 18:24:12;;;;;;;;;;;;;;;;;;4943625;28;19918;-77
2023/07/29 18:26:59;;;;;;;;;;;;;;;;;;4938775;28;19922;-77
2023/07/29 18:29:45;;;;;;;;;;;;;;;;;;4946780;28;19919;-77
2023/07/29 18:32:32;;;;;;;;;;;;;;;;;;4938407;28;19915;-78
2023/07/29 18:35:18;;;;;;;;;;;;;;;;;;4941916;28;19991;-75
2023/07/29 18:38:05;;;;;;;;;;;;;;;;;;4925947;28;19938;-77
2023/07/29 18:40:51;;;;;;;;;;;;;;;;;;4943527;28;20394;-75
2023/07/29 18:43:38;;;;;;;;;;;;;;;;;;4946585;28;20287;-75
2023/07/29 18:46:29;;;;;;;;;;;;;;;;;;4929071;28;19914;-77
2023/07/29 18:49:16;;;;;;;;;;;;;;;;;;4930198;28;19952;-76
2023/07/29 18:52:02;;;;;;;;;;;;;;;;;;4938815;28;20591;-76
2023/07/29 18:54:49;;;;;;;;;;;;;;;;;;4943362;28;19922;-78
2023/07/29 18:57:35;;;;;;;;;;;;;;;;;;4927529;28;19926;-77